createdAt,value
2018-02-07T00:00:35.814Z,35.97
2018-02-07T00:03:04.138Z,35.03
2018-02-07T00:05:31.711Z,37.88
2018-02-07T00:07:59.296Z,37.40
2018-02-07T00:10:26.854Z,36.08
2018-02-07T00:12:54.412Z,36.70
2018-02-07T00:15:22.005Z,39.53
2018-02-07T00:17:49.559Z,36.75
2018-02-07T00:20:17.124Z,36.28
2018-02-07T00:22:44.681Z,36.05
2018-02-07T00:25:12.273Z,37.50
2018-02-07T00:27:40.596Z,36.90
2018-02-07T00:30:08.153Z,35.40
2018-02-07T00:32:35.714Z,35.30
2018-02-07T00:35:03.269Z,38.40
2018-02-07T00:37:30.854Z,37.30
2018-02-07T00:39:58.416Z,35.35
2018-02-07T00:42:25.982Z,38.25
2018-02-07T00:44:53.548Z,37.40
2018-02-07T00:47:21.096Z,38.67
2018-02-07T00:49:48.692Z,38.00
2018-02-07T00:52:17.019Z,37.25
2018-02-07T00:54:44.576Z,37.33
2018-02-07T00:57:12.135Z,39.25
2018-02-07T00:59:39.956Z,35.72
2018-02-07T01:02:08.311Z,36.83
2018-02-07T01:04:35.866Z,40.30
2018-02-07T01:07:03.433Z,38.60
2018-02-07T01:09:30.983Z,38.25
2018-02-07T01:11:58.559Z,36.50
2018-02-07T01:14:26.144Z,36.42
2018-02-07T01:16:54.467Z,36.92
2018-02-07T01:19:22.018Z,39.40
2018-02-07T01:21:49.574Z,38.53
2018-02-07T01:24:17.133Z,39.05
2018-02-07T01:26:44.716Z,38.45
2018-02-07T01:29:12.266Z,37.53
2018-02-07T01:31:39.827Z,36.75
2018-02-07T01:34:07.383Z,37.42
2018-02-07T01:36:34.943Z,39.10
2018-02-07T01:39:02.535Z,35.97
2018-02-07T01:41:30.095Z,37.53
2018-02-07T01:43:57.671Z,34.78
2018-02-07T01:46:25.996Z,37.33
2018-02-07T01:48:53.555Z,34.97
2018-02-07T01:51:21.151Z,34.00
2018-02-07T01:53:48.698Z,35.83
2018-02-07T01:56:16.259Z,34.70
2018-02-07T01:58:43.815Z,35.90
2018-02-07T02:01:11.372Z,38.70
2018-02-07T02:03:38.946Z,36.92
2018-02-07T02:06:06.510Z,37.42
2018-02-07T02:08:34.069Z,33.88
2018-02-07T02:11:01.638Z,35.83
2018-02-07T02:13:30.174Z,33.13
2018-02-07T02:15:57.741Z,34.63
2018-02-07T02:18:25.304Z,33.22
2018-02-07T02:20:52.893Z,35.17
2018-02-07T02:23:20.451Z,35.40
2018-02-07T02:25:48.018Z,33.95
2018-02-07T02:28:15.580Z,32.63
2018-02-07T02:30:43.132Z,34.50
2018-02-07T02:33:10.716Z,35.63
2018-02-07T02:35:38.288Z,37.25
2018-02-07T02:38:06.616Z,32.95
2018-02-07T02:40:34.183Z,32.40
2018-02-07T02:43:01.744Z,35.10
2018-02-07T02:45:29.344Z,36.53
2018-02-07T02:48:07.415Z,34.38
2018-02-07T02:50:35.003Z,35.63
2018-02-07T02:53:02.562Z,33.95
2018-02-07T02:55:30.897Z,34.20
2018-02-07T02:57:58.451Z,36.15
2018-02-07T03:00:26.012Z,35.92
2018-02-07T03:02:53.591Z,33.95
2018-02-07T03:05:21.914Z,34.72
2018-02-07T03:07:50.234Z,34.13
2018-02-07T03:10:17.794Z,33.40
2018-02-07T03:12:45.348Z,35.15
2018-02-07T03:15:12.939Z,32.88
2018-02-07T03:17:40.508Z,34.33
2018-02-07T03:20:08.071Z,34.15
2018-02-07T03:22:46.111Z,34.03
2018-02-07T03:25:13.672Z,34.28
2018-02-07T03:27:41.259Z,35.55
2018-02-07T03:30:08.826Z,34.78
2018-02-07T03:32:36.382Z,34.30
2018-02-07T03:35:03.943Z,35.97
2018-02-07T03:37:31.505Z,33.85
2018-02-07T03:39:59.085Z,34.50
2018-02-07T03:42:26.648Z,34.50
2018-02-07T03:44:54.205Z,35.35
2018-02-07T03:47:21.780Z,34.28
2018-02-07T03:49:49.347Z,34.40
2018-02-07T03:52:16.928Z,35.65
2018-02-07T03:54:45.250Z,34.70
2018-02-07T03:57:12.844Z,35.53
2018-02-07T03:59:40.406Z,33.70
2018-02-07T04:02:07.979Z,33.30
2018-02-07T04:04:36.340Z,34.78
2018-02-07T04:07:03.898Z,31.60
2018-02-07T04:09:31.449Z,33.60
2018-02-07T04:11:59.002Z,34.30
2018-02-07T04:14:43.031Z,33.38
2018-02-07T04:17:10.614Z,33.00
2018-02-07T04:19:38.189Z,33.40
2018-02-07T04:22:05.757Z,33.17
2018-02-07T04:24:33.310Z,35.13
2018-02-07T04:27:00.879Z,34.25
2018-02-07T04:29:29.210Z,32.30
2018-02-07T04:31:56.771Z,33.08
2018-02-07T04:34:24.319Z,32.92
2018-02-07T04:36:51.884Z,31.40
2018-02-07T04:39:19.467Z,31.58
2018-02-07T04:41:47.023Z,32.85
2018-02-07T04:44:14.579Z,30.70
2018-02-07T04:46:42.148Z,30.23
2018-02-07T04:49:22.759Z,32.85
2018-02-07T04:51:51.095Z,31.12
2018-02-07T04:54:18.647Z,30.55
2018-02-07T04:56:46.206Z,32.67
2018-02-07T04:59:13.758Z,31.60
2018-02-07T05:01:41.310Z,32.80
2018-02-07T05:04:08.890Z,32.53
2018-02-07T05:06:36.446Z,31.02
2018-02-07T05:09:04.003Z,32.38
2018-02-07T05:11:31.560Z,32.25
2018-02-07T05:13:59.115Z,30.80
2018-02-07T05:16:26.695Z,31.75
2018-02-07T05:18:54.250Z,33.15
2018-02-07T05:21:21.798Z,32.10
2018-02-07T05:23:49.340Z,31.42
2018-02-07T05:26:16.907Z,32.53
2018-02-07T05:28:44.492Z,34.25
2018-02-07T05:31:12.038Z,30.95
2018-02-07T05:33:39.595Z,31.20
2018-02-07T05:36:26.419Z,30.48
2018-02-07T05:38:53.976Z,32.47
2018-02-07T05:41:28.382Z,34.80
2018-02-07T05:43:55.942Z,37.15
2018-02-07T05:46:23.492Z,33.92
2018-02-07T05:48:51.048Z,34.97
2018-02-07T05:51:18.610Z,33.15
2018-02-07T05:53:46.180Z,35.17
2018-02-07T05:56:13.739Z,34.70
2018-02-07T05:58:41.304Z,30.92
2018-02-07T06:01:09.096Z,31.65
2018-02-07T06:03:36.664Z,32.17
2018-02-07T06:06:04.302Z,32.90
2018-02-07T06:08:31.857Z,32.08
2018-02-07T06:10:59.419Z,32.65
2018-02-07T06:13:26.968Z,32.55
2018-02-07T06:15:54.526Z,33.17
2018-02-07T06:18:22.111Z,32.53
2018-02-07T06:20:49.670Z,34.47
2018-02-07T06:23:17.231Z,32.90
2018-02-07T06:25:51.199Z,31.00
2018-02-07T06:28:18.757Z,32.80
2018-02-07T06:30:46.351Z,32.33
2018-02-07T06:33:13.922Z,35.97
2018-02-07T06:35:41.496Z,34.92
2018-02-07T06:38:09.051Z,33.05
2018-02-07T06:40:36.603Z,37.72
2018-02-07T06:43:18.942Z,33.15
2018-02-07T06:45:47.274Z,35.17
2018-02-07T06:48:14.858Z,32.70
2018-02-07T06:50:42.427Z,35.38
2018-02-07T06:53:09.979Z,33.47
2018-02-07T06:55:37.536Z,37.03
2018-02-07T06:58:05.099Z,37.20
2018-02-07T07:00:32.697Z,37.33
2018-02-07T07:03:01.111Z,36.60
2018-02-07T07:05:28.667Z,38.05
2018-02-07T07:07:56.239Z,35.05
2018-02-07T07:10:23.794Z,34.83
2018-02-07T07:12:51.379Z,39.05
2018-02-07T07:15:18.947Z,38.72
2018-02-07T07:17:46.521Z,40.15
2018-02-07T07:20:14.083Z,40.28
2018-02-07T07:22:41.644Z,42.03
2018-02-07T07:25:09.240Z,40.22
2018-02-07T07:27:36.799Z,38.70
2018-02-07T07:30:04.406Z,39.38
2018-02-07T07:32:31.975Z,37.20
2018-02-07T07:34:59.520Z,36.72
2018-02-07T07:37:32.897Z,39.08
2018-02-07T07:40:03.896Z,36.65
2018-02-07T07:42:35.808Z,38.25
2018-02-07T07:45:03.366Z,38.50
2018-02-07T07:47:30.944Z,38.42
2018-02-07T07:52:53.724Z,36.63
2018-02-07T07:55:21.282Z,37.63
2018-02-07T07:57:48.839Z,37.90
2018-02-07T08:00:17.390Z,36.22
2018-02-07T08:02:44.944Z,37.17
2018-02-07T08:05:12.526Z,36.67
2018-02-07T08:07:40.078Z,37.38
2018-02-07T08:10:07.632Z,36.92
2018-02-07T08:12:35.194Z,38.42
2018-02-07T08:15:02.763Z,35.65
2018-02-07T08:17:30.358Z,35.42
2018-02-07T08:20:20.319Z,37.17
2018-02-07T08:22:47.948Z,34.13
2018-02-07T08:25:15.512Z,37.10
2018-02-07T08:27:43.072Z,35.58
2018-02-07T08:30:10.625Z,33.20
2018-02-07T08:32:38.185Z,34.83
2018-02-07T08:35:05.789Z,33.30
2018-02-07T08:37:33.360Z,33.53
2018-02-07T08:40:01.704Z,36.38
2018-02-07T08:42:29.268Z,37.00
2018-02-07T08:44:56.815Z,35.20
2018-02-07T08:47:24.398Z,35.83
2018-02-07T08:49:51.966Z,34.97
2018-02-07T08:52:22.983Z,35.70
2018-02-07T08:54:50.539Z,36.50
2018-02-07T08:57:18.082Z,36.73
2018-02-07T08:59:45.670Z,36.57
2018-02-07T09:02:13.224Z,36.40
2018-02-07T09:04:40.771Z,36.50
2018-02-07T09:07:08.323Z,37.30
2018-02-07T09:09:35.898Z,38.60
2018-02-07T09:12:03.485Z,36.03
2018-02-07T09:14:31.837Z,36.47
2018-02-07T09:16:59.391Z,36.03
2018-02-07T09:19:26.997Z,36.40
2018-02-07T09:21:54.516Z,37.30
2018-02-07T09:24:22.102Z,34.57
2018-02-07T09:26:49.667Z,33.97
2018-02-07T09:29:18.223Z,38.47
2018-02-07T09:31:45.766Z,37.70
2018-02-07T09:34:13.314Z,34.23
2018-02-07T09:36:41.647Z,34.50
2018-02-07T09:39:09.202Z,33.27
2018-02-07T09:41:36.763Z,33.42
2018-02-07T09:44:04.310Z,32.87
2018-02-07T09:46:31.863Z,33.90
2018-02-07T09:48:59.472Z,36.10
2018-02-07T09:51:27.810Z,35.67
2018-02-07T09:54:09.763Z,36.60
2018-02-07T09:56:38.071Z,36.83
2018-02-07T09:59:05.619Z,34.47
2018-02-07T10:01:33.167Z,36.07
2018-02-07T10:04:00.757Z,35.33
2018-02-07T10:06:28.327Z,35.67
2018-02-07T10:08:55.880Z,38.17
2018-02-07T10:11:23.432Z,35.50
2018-02-07T10:13:51.000Z,35.47
2018-02-07T10:16:18.543Z,32.80
2018-02-07T10:18:46.116Z,34.63
2018-02-07T10:21:13.667Z,34.10
2018-02-07T10:23:41.210Z,34.40
2018-02-07T10:26:08.761Z,32.03
2018-02-07T10:28:44.406Z,33.40
2018-02-07T10:31:19.103Z,32.63
2018-02-07T10:33:46.653Z,31.53
2018-02-07T10:36:17.807Z,33.10
2018-02-07T10:38:45.362Z,31.63
2018-02-07T10:41:12.936Z,34.17
2018-02-07T10:43:40.511Z,35.10
2018-02-07T10:46:08.832Z,33.80
2018-02-07T10:48:36.380Z,34.17
2018-02-07T10:51:03.930Z,35.10
2018-02-07T10:53:32.428Z,35.07
2018-02-07T10:56:00.810Z,38.10
2018-02-07T10:58:33.779Z,34.50
2018-02-07T11:01:01.376Z,35.83
2018-02-07T11:03:28.927Z,35.97
2018-02-07T11:05:56.596Z,35.90
2018-02-07T11:08:24.147Z,35.00
2018-02-07T11:10:52.535Z,36.23
2018-02-07T11:13:20.114Z,35.07
2018-02-07T11:15:47.655Z,34.90
2018-02-07T11:18:15.234Z,36.03
2018-02-07T11:20:42.786Z,35.17
2018-02-07T11:23:10.362Z,35.63
2018-02-07T11:25:44.799Z,35.37
2018-02-07T11:28:13.919Z,36.30
2018-02-07T11:30:41.502Z,34.50
2018-02-07T11:33:09.105Z,33.13
2018-02-07T11:35:36.650Z,33.80
2018-02-07T11:38:04.211Z,36.90
2018-02-07T11:40:31.781Z,37.20
2018-02-07T11:42:59.326Z,38.27
2018-02-07T11:45:26.874Z,37.63
2018-02-07T11:47:54.454Z,35.80
2018-02-07T11:50:21.994Z,37.10
2018-02-07T11:52:49.826Z,34.67
2018-02-07T11:55:32.394Z,35.43
2018-02-07T11:58:00.257Z,35.47
2018-02-07T12:00:27.886Z,33.80
2018-02-07T12:02:55.426Z,34.23
2018-02-07T12:05:23.887Z,34.80
2018-02-07T12:07:51.548Z,33.93
2018-02-07T12:10:21.284Z,33.60
2018-02-07T12:12:49.018Z,35.40
2018-02-07T12:15:16.655Z,35.90
2018-02-07T12:17:44.203Z,35.60
2018-02-07T12:20:11.760Z,35.60
2018-02-07T12:22:39.306Z,36.23
2018-02-07T12:25:06.851Z,36.57
2018-02-07T12:27:34.398Z,37.57
2018-02-07T12:30:03.754Z,36.80
2018-02-07T12:32:31.302Z,34.43
2018-02-07T12:34:58.855Z,35.17
2018-02-07T12:37:26.406Z,37.20
2018-02-07T12:39:55.931Z,34.87
2018-02-07T12:42:23.511Z,39.00
2018-02-07T12:44:51.058Z,38.83
2018-02-07T12:47:18.628Z,39.77
2018-02-07T12:49:48.234Z,39.50
2018-02-07T12:52:15.778Z,40.53
2018-02-07T12:54:43.359Z,41.30
2018-02-07T12:57:10.915Z,42.13
2018-02-07T12:59:38.458Z,38.53
2018-02-07T13:02:07.066Z,38.70
2018-02-07T13:04:35.382Z,36.67
2018-02-07T13:10:03.980Z,39.60
2018-02-07T13:12:32.336Z,39.67
2018-02-07T13:15:01.954Z,40.10
2018-02-07T13:17:29.509Z,39.90
2018-02-07T13:19:57.055Z,39.93
2018-02-07T13:22:24.599Z,40.77
2018-02-07T13:24:52.163Z,40.87
2018-02-07T13:27:44.935Z,38.13
2018-02-07T13:30:12.507Z,40.17
2018-02-07T13:32:45.239Z,41.17
2018-02-07T13:35:12.820Z,40.77
2018-02-07T13:37:40.354Z,39.10
2018-02-07T13:40:22.846Z,36.10
2018-02-07T13:42:51.174Z,35.73
2018-02-07T13:45:18.737Z,35.70
2018-02-07T13:47:46.291Z,36.67
2018-02-07T13:50:19.042Z,34.40
2018-02-07T13:52:46.622Z,34.57
2018-02-07T13:55:14.161Z,32.33
2018-02-07T13:57:41.720Z,35.03
2018-02-07T14:00:23.489Z,34.80
2018-02-07T14:02:51.807Z,33.70
2018-02-07T14:05:19.389Z,32.00
2018-02-07T14:07:46.931Z,33.10
2018-02-07T14:10:14.483Z,32.87
2018-02-07T14:12:42.042Z,31.80
2018-02-07T14:15:16.115Z,32.33
2018-02-07T14:17:44.457Z,30.20
2018-02-07T14:20:12.019Z,29.13
2018-02-07T14:22:39.557Z,30.73
2018-02-07T14:25:07.143Z,30.80
2018-02-07T14:27:34.694Z,30.97
2018-02-07T14:30:03.027Z,28.63
2018-02-07T14:32:31.334Z,29.87
2018-02-07T14:34:58.885Z,28.10
2018-02-07T14:37:26.426Z,28.33
2018-02-07T14:39:53.971Z,33.87
2018-02-07T14:42:22.306Z,30.57
2018-02-07T14:44:50.866Z,28.50
2018-02-07T14:47:18.416Z,27.73
2018-02-07T14:49:45.973Z,28.50
2018-02-07T14:52:13.551Z,29.00
2018-02-07T14:54:41.127Z,27.40
2018-02-07T14:57:08.684Z,32.03
2018-02-07T14:59:36.241Z,26.60
2018-02-07T15:02:15.548Z,27.03
2018-02-07T15:04:43.099Z,27.80
2018-02-07T15:07:11.447Z,29.73
2018-02-07T15:09:39.031Z,28.90
2018-02-07T15:12:07.339Z,26.70
2018-02-07T15:14:34.874Z,28.07
2018-02-07T15:17:03.187Z,28.63
2018-02-07T15:19:30.751Z,26.60
2018-02-07T15:22:00.256Z,27.50
2018-02-07T15:24:27.811Z,29.73
2018-02-07T15:26:55.403Z,28.57
2018-02-07T15:29:23.701Z,26.83
2018-02-07T15:32:05.572Z,28.10
2018-02-07T15:34:33.107Z,26.90
2018-02-07T15:37:00.650Z,28.90
2018-02-07T15:39:28.190Z,29.00
2018-02-07T15:41:56.502Z,28.80
2018-02-07T15:44:24.098Z,31.30
2018-02-07T15:46:51.648Z,34.13
2018-02-07T15:49:19.242Z,29.00
2018-02-07T15:51:46.797Z,28.17
2018-02-07T15:54:14.342Z,26.83
2018-02-07T15:56:41.942Z,29.40
2018-02-07T15:59:09.491Z,28.97
2018-02-07T16:01:43.928Z,30.73
2018-02-07T16:04:11.476Z,29.10
2018-02-07T16:06:45.638Z,28.17
2018-02-07T16:09:13.960Z,28.83
2018-02-07T16:12:01.651Z,25.93
2018-02-07T16:14:29.210Z,28.83
2018-02-07T16:16:56.754Z,28.93
2018-02-07T16:19:24.326Z,28.50
2018-02-07T16:21:51.910Z,29.70
2018-02-07T16:24:19.501Z,27.67
2018-02-07T16:26:47.066Z,29.23
2018-02-07T16:32:21.194Z,29.43
2018-02-07T16:34:49.530Z,28.97
2018-02-07T16:37:21.150Z,31.27
2018-02-07T16:39:51.919Z,29.20
2018-02-07T16:42:40.284Z,30.10
2018-02-07T16:45:07.865Z,30.23
2018-02-07T16:47:36.186Z,30.40
2018-02-07T16:50:22.711Z,29.87
2018-02-07T16:52:55.363Z,30.13
2018-02-07T16:55:23.973Z,32.53
2018-02-07T16:57:51.527Z,32.40
2018-02-07T17:00:19.102Z,33.70
2018-02-07T17:03:07.051Z,33.70
2018-02-07T17:05:34.640Z,33.13
2018-02-07T17:08:02.975Z,32.00
2018-02-07T17:10:30.527Z,33.43
2018-02-07T17:13:03.914Z,34.17
2018-02-07T17:15:31.749Z,33.67
2018-02-07T17:17:59.340Z,31.73
2018-02-07T17:20:26.915Z,31.47
2018-02-07T17:22:54.497Z,32.83
2018-02-07T17:25:22.099Z,32.73
2018-02-07T17:27:49.695Z,33.17
2018-02-07T17:30:17.258Z,33.70
2018-02-07T17:32:44.817Z,33.50
2018-02-07T17:35:12.368Z,34.10
2018-02-07T17:40:40.826Z,35.90
2018-02-07T17:43:08.421Z,33.03
2018-02-07T17:45:40.805Z,34.37
2018-02-07T17:48:08.395Z,34.30
2018-02-07T17:50:47.042Z,33.77
2018-02-07T17:53:15.379Z,33.53
2018-02-07T17:55:42.998Z,33.57
2018-02-07T17:58:21.149Z,34.97
2018-02-07T18:00:48.708Z,32.80
2018-02-07T18:03:16.254Z,34.87
2018-02-07T18:05:43.826Z,35.97
2018-02-07T18:08:11.421Z,36.17
2018-02-07T18:10:39.001Z,35.17
2018-02-07T18:13:07.301Z,35.00
2018-02-07T18:18:53.554Z,34.40
2018-02-07T18:21:21.106Z,33.03
2018-02-07T18:23:48.666Z,34.50
2018-02-07T18:26:16.231Z,36.90
2018-02-07T18:28:43.775Z,32.57
2018-02-07T18:31:11.331Z,32.43
2018-02-07T18:33:38.897Z,35.47
2018-02-07T18:41:57.684Z,34.27
2018-02-07T18:44:25.269Z,33.07
2018-02-07T18:46:52.829Z,36.03
2018-02-07T18:49:20.386Z,36.60
2018-02-07T18:51:47.944Z,34.20
2018-02-07T18:54:15.509Z,36.47
2018-02-07T18:56:43.082Z,36.97
2018-02-07T18:59:10.628Z,36.77
2018-02-07T19:01:38.179Z,34.60
2018-02-07T19:04:05.726Z,35.70
2018-02-07T19:06:33.299Z,37.93
2018-02-07T19:09:00.870Z,36.97
2018-02-07T19:11:28.419Z,36.80
2018-02-07T19:14:03.169Z,36.20
2018-02-07T19:16:30.839Z,35.17
2018-02-07T19:18:58.393Z,35.07
2018-02-07T19:21:25.939Z,37.10
2018-02-07T19:23:53.515Z,35.47
2018-02-07T19:26:21.159Z,36.30
2018-02-07T19:28:48.696Z,35.13
2018-02-07T19:31:16.284Z,36.70
2018-02-07T19:33:44.619Z,37.33
2018-02-07T19:36:12.164Z,37.50
2018-02-07T19:38:40.496Z,36.83
2018-02-07T19:41:08.060Z,36.93
2018-02-07T19:43:40.251Z,37.50
2018-02-07T19:46:07.793Z,35.70
2018-02-07T19:48:35.386Z,36.03
2018-02-07T19:51:03.778Z,36.97
2018-02-07T19:53:32.120Z,36.93
2018-02-07T19:56:02.910Z,38.47
2018-02-07T19:58:30.514Z,37.80
2018-02-07T20:00:58.075Z,37.30
2018-02-07T20:03:25.678Z,38.07
2018-02-07T20:05:53.222Z,39.87
2018-02-07T20:08:20.803Z,38.67
2018-02-07T20:10:48.350Z,38.30
2018-02-07T20:13:16.670Z,38.17
2018-02-07T20:15:45.139Z,42.92
2018-02-07T20:18:12.748Z,39.93
2018-02-07T20:20:40.444Z,38.30
2018-02-07T20:23:08.034Z,39.27
2018-02-07T20:25:35.588Z,37.90
2018-02-07T20:28:04.197Z,40.70
2018-02-07T20:30:31.789Z,38.97
2018-02-07T20:32:59.427Z,37.83
2018-02-07T20:35:26.993Z,37.23
2018-02-07T20:37:54.591Z,38.30
2018-02-07T20:40:29.146Z,38.60
2018-02-07T20:42:56.758Z,38.47
2018-02-07T20:45:24.331Z,37.90
2018-02-07T20:47:52.657Z,37.70
2018-02-07T20:50:20.211Z,39.90
2018-02-07T20:52:47.762Z,36.33
2018-02-07T20:55:15.370Z,36.43
2018-02-07T20:57:42.920Z,39.67
2018-02-07T21:00:10.465Z,38.10
2018-02-07T21:02:38.053Z,38.83
2018-02-07T21:05:05.627Z,38.53
2018-02-07T21:07:33.970Z,39.07
2018-02-07T21:10:01.515Z,38.23
2018-02-07T21:12:29.062Z,39.30
2018-02-07T21:14:56.637Z,37.30
2018-02-07T21:17:24.195Z,39.23
2018-02-07T21:19:51.736Z,37.40
2018-02-07T21:22:19.295Z,39.30
2018-02-07T21:24:46.846Z,38.87
2018-02-07T21:27:14.426Z,39.87
2018-02-07T21:29:41.982Z,40.07
2018-02-07T21:32:10.471Z,40.20
2018-02-07T21:34:38.026Z,39.83
2018-02-07T21:37:05.591Z,38.88
2018-02-07T21:39:33.170Z,37.10
2018-02-07T21:42:00.727Z,39.50
2018-02-07T21:44:28.271Z,37.90
2018-02-07T21:46:55.825Z,38.22
2018-02-07T21:49:23.408Z,40.83
2018-02-07T21:51:50.980Z,40.23
2018-02-07T21:54:18.540Z,35.43
2018-02-07T21:56:46.079Z,38.90
2018-02-07T21:59:13.633Z,38.00
2018-02-07T22:01:41.178Z,38.47
2018-02-07T22:04:08.769Z,39.53
2018-02-07T22:06:36.330Z,38.17
2018-02-07T22:09:04.657Z,38.97
2018-02-07T22:11:32.238Z,39.27
2018-02-07T22:13:59.795Z,36.90
2018-02-07T22:16:27.435Z,38.07
2018-02-07T22:18:55.753Z,36.20
2018-02-07T22:21:23.307Z,38.80
2018-02-07T22:23:50.843Z,38.97
2018-02-07T22:26:18.502Z,37.35
2018-02-07T22:28:46.082Z,39.20
2018-02-07T22:31:13.638Z,36.80
2018-02-07T22:33:41.188Z,37.97
2018-02-07T22:36:08.739Z,37.43
2018-02-07T22:38:37.096Z,37.67
2018-02-07T22:41:04.782Z,39.47
2018-02-07T22:43:33.094Z,37.63
2018-02-07T22:46:00.671Z,35.47
2018-02-07T22:48:28.230Z,38.27
2018-02-07T22:50:55.812Z,39.13
2018-02-07T22:53:23.390Z,38.20
2018-02-07T22:55:50.951Z,39.00
2018-02-07T22:58:18.503Z,39.13
2018-02-07T23:00:46.827Z,37.70
2018-02-07T23:03:14.376Z,37.47
2018-02-07T23:05:41.988Z,37.00
2018-02-07T23:08:09.547Z,39.10
2018-02-07T23:10:37.108Z,35.80
2018-02-07T23:13:04.673Z,37.00
2018-02-07T23:15:32.231Z,37.93
2018-02-07T23:17:59.846Z,36.27
2018-02-07T23:20:27.403Z,37.40
2018-02-07T23:22:54.978Z,39.13
2018-02-07T23:25:22.535Z,37.30
2018-02-07T23:27:50.082Z,36.47
2018-02-07T23:30:17.646Z,39.33
2018-02-07T23:32:48.390Z,36.23
2018-02-07T23:35:15.931Z,36.33
2018-02-07T23:37:43.483Z,38.00
2018-02-07T23:40:11.044Z,38.27
2018-02-07T23:42:38.626Z,37.00
2018-02-07T23:45:06.194Z,36.40
2018-02-07T23:47:33.762Z,36.50
2018-02-07T23:50:01.315Z,41.20
2018-02-07T23:52:28.873Z,38.00
2018-02-07T23:54:56.476Z,38.57
2018-02-07T23:57:24.027Z,39.70
2018-02-07T23:59:51.577Z,39.97
